VIR18 KEWR-EGLL
Flight info
| Callsign | VIR18 |
|---|---|
| Flight time | 6h 56m |
| Altitude | 37000 |
| Route | MERIT DCT HFD DCT PUT DCT BOS DCT BRADD N261B NICSO/M080F390 DCT 48N050W 50N040W 52N030W 53N020W DCT DOGAL DCT BEXET/N0454F390 DCT ERABI DCT ABAGU DCT ENJEX DCT AVZAC DCT INFEC DCT JETZI DCT AMFUL DCT ORZEB/N0365F230 P2 SIRIC |
| Aircraft | A343/H-SDE2E3FGHIJ4J5M1RWXY/LB1D1 |
Departure
| Time | 2026-04-24 14:44 |
|---|---|
| Airport | Newark Liberty International Airport (KEWR) |
Arrival
| Time | 2026-04-24 21:41 |
|---|---|
| Airport | London Heathrow Airport (EGLL) |
| Time | Latitude | Longitude | Altitude | Speed | Heading |
|---|---|---|---|---|---|
| 2026-04-24 14:20 | 40.69187 | -74.17329 | 30 ft | 0 kts | 275° |
| 2026-04-24 14:32 | 40.69187 | -74.17328 | 26 ft | 1 kts | 275° |
| 2026-04-24 14:32 | 40.69184 | -74.17297 | 30 ft | 4 kts | 275° |
| 2026-04-24 14:33 | 40.69182 | -74.17261 | 31 ft | 4 kts | 277° |
| 2026-04-24 14:33 | 40.69178 | -74.17231 | 31 ft | 2 kts | 281° |
| 2026-04-24 14:33 | 40.69176 | -74.17200 | 31 ft | 4 kts | 250° |
| 2026-04-24 14:33 | 40.69192 | -74.17175 | 31 ft | 4 kts | 207° |
| 2026-04-24 14:34 | 40.69203 | -74.17168 | 31 ft | 0 kts | 206° |
| 2026-04-24 14:39 | 40.69198 | -74.17171 | 26 ft | 3 kts | 206° |
| 2026-04-24 14:39 | 40.69157 | -74.17189 | 29 ft | 7 kts | 186° |
| 2026-04-24 14:39 | 40.69109 | -74.17217 | 29 ft | 11 kts | 214° |
| 2026-04-24 14:39 | 40.69011 | -74.17290 | 28 ft | 22 kts | 206° |
| 2026-04-24 14:40 | 40.68878 | -74.17373 | 28 ft | 21 kts | 206° |
| 2026-04-24 14:40 | 40.68748 | -74.17456 | 26 ft | 21 kts | 205° |
| 2026-04-24 14:40 | 40.68615 | -74.17540 | 26 ft | 21 kts | 206° |
| 2026-04-24 14:40 | 40.68480 | -74.17627 | 26 ft | 22 kts | 206° |
| 2026-04-24 14:41 | 40.68343 | -74.17714 | 27 ft | 22 kts | 206° |
| 2026-04-24 14:41 | 40.68203 | -74.17801 | 30 ft | 22 kts | 205° |
| 2026-04-24 14:41 | 40.68062 | -74.17891 | 30 ft | 23 kts | 206° |
| 2026-04-24 14:41 | 40.67921 | -74.17981 | 30 ft | 23 kts | 206° |
| 2026-04-24 14:42 | 40.67824 | -74.18043 | 29 ft | 23 kts | 206° |
| 2026-04-24 14:42 | 40.67662 | -74.18130 | 26 ft | 9 kts | 178° |
| 2026-04-24 14:42 | 40.67623 | -74.18081 | 32 ft | 12 kts | 131° |
| 2026-04-24 14:42 | 40.67570 | -74.17992 | 26 ft | 13 kts | 120° |
| 2026-04-24 14:43 | 40.67586 | -74.17918 | 27 ft | 8 kts | 36° |
| 2026-04-24 14:43 | 40.67650 | -74.17875 | 29 ft | 18 kts | 27° |
| 2026-04-24 14:43 | 40.67922 | -74.17701 | 25 ft | 70 kts | 25° |
| 2026-04-24 14:43 | 40.68508 | -74.17329 | 28 ft | 115 kts | 26° |
| 2026-04-24 14:44 | 40.69041 | -74.16990 | 29 ft | 140 kts | 26° |
| 2026-04-24 14:44 | 40.69961 | -74.16426 | 398 ft | 145 kts | 28° |
| 2026-04-24 14:44 | 40.71188 | -74.15585 | 931 ft | 159 kts | 36° |
| 2026-04-24 14:44 | 40.71909 | -74.14414 | 1236 ft | 175 kts | 50° |
| 2026-04-24 14:45 | 40.72779 | -74.13160 | 1514 ft | 199 kts | 40° |
| 2026-04-24 14:45 | 40.73575 | -74.12397 | 1712 ft | 219 kts | 30° |
| 2026-04-24 14:45 | 40.74947 | -74.11382 | 2337 ft | 232 kts | 27° |
| 2026-04-24 14:45 | 40.76375 | -74.10317 | 3099 ft | 240 kts | 27° |
| 2026-04-24 14:46 | 40.77809 | -74.09191 | 3871 ft | 245 kts | 27° |
| 2026-04-24 14:46 | 40.79273 | -74.07974 | 4580 ft | 253 kts | 27° |
| 2026-04-24 14:46 | 40.80748 | -74.06687 | 4927 ft | 255 kts | 27° |
| 2026-04-24 14:46 | 40.82218 | -74.05380 | 4993 ft | 254 kts | 27° |
| 2026-04-24 14:47 | 40.83686 | -74.04070 | 4976 ft | 255 kts | 27° |
| 2026-04-24 14:47 | 40.85129 | -74.02699 | 4974 ft | 259 kts | 35° |
| 2026-04-24 14:47 | 40.86147 | -74.00680 | 5223 ft | 275 kts | 64° |
| 2026-04-24 14:47 | 40.86549 | -73.98153 | 5763 ft | 288 kts | 75° |
| 2026-04-24 14:48 | 40.86765 | -73.95479 | 6545 ft | 295 kts | 77° |
| 2026-04-24 14:48 | 40.86933 | -73.92770 | 7345 ft | 298 kts | 77° |
| 2026-04-24 14:48 | 40.87092 | -73.89999 | 8045 ft | 305 kts | 77° |
| 2026-04-24 14:48 | 40.87243 | -73.87184 | 8763 ft | 310 kts | 77° |
| 2026-04-24 14:49 | 40.87385 | -73.84305 | 9474 ft | 316 kts | 77° |
| 2026-04-24 14:49 | 40.87518 | -73.81389 | 9890 ft | 321 kts | 77° |
| 2026-04-24 14:49 | 40.87647 | -73.78439 | 9993 ft | 321 kts | 76° |
| 2026-04-24 14:49 | 40.88107 | -73.75679 | 10023 ft | 302 kts | 54° |
| 2026-04-24 14:50 | 40.89112 | -73.73274 | 10229 ft | 299 kts | 44° |
| 2026-04-24 14:50 | 40.90435 | -73.71106 | 10485 ft | 309 kts | 37° |
| 2026-04-24 14:50 | 40.91940 | -73.69001 | 10770 ft | 321 kts | 34° |
| 2026-04-24 14:50 | 40.93592 | -73.66909 | 11094 ft | 333 kts | 32° |
| 2026-04-24 14:51 | 40.95326 | -73.64829 | 11617 ft | 340 kts | 31° |
| 2026-04-24 14:51 | 40.97104 | -73.62744 | 12215 ft | 344 kts | 31° |
| 2026-04-24 14:51 | 40.98915 | -73.60628 | 12827 ft | 348 kts | 31° |
| 2026-04-24 14:51 | 41.00743 | -73.58488 | 13458 ft | 353 kts | 31° |
| 2026-04-24 14:52 | 41.02586 | -73.56319 | 14055 ft | 357 kts | 31° |
| 2026-04-24 14:52 | 41.04451 | -73.54114 | 14609 ft | 361 kts | 31° |
| 2026-04-24 14:52 | 41.06338 | -73.51879 | 15144 ft | 366 kts | 31° |
| 2026-04-24 14:52 | 41.08248 | -73.49611 | 15690 ft | 371 kts | 31° |
| 2026-04-24 14:53 | 41.10153 | -73.47344 | 16239 ft | 375 kts | 31° |
| 2026-04-24 14:53 | 41.12109 | -73.45016 | 16778 ft | 379 kts | 31° |
| 2026-04-24 14:53 | 41.14080 | -73.42669 | 17322 ft | 384 kts | 31° |
| 2026-04-24 14:53 | 41.16077 | -73.40288 | 17866 ft | 388 kts | 31° |
| 2026-04-24 14:54 | 41.18099 | -73.37875 | 18398 ft | 392 kts | 31° |
| 2026-04-24 14:54 | 41.20126 | -73.35449 | 19012 ft | 391 kts | 31° |
| 2026-04-24 14:54 | 41.22146 | -73.33026 | 19596 ft | 392 kts | 31° |
| 2026-04-24 14:54 | 41.24177 | -73.30594 | 20098 ft | 395 kts | 31° |
| 2026-04-24 14:55 | 41.26223 | -73.28145 | 20606 ft | 397 kts | 31° |
| 2026-04-24 14:55 | 41.28282 | -73.25679 | 21109 ft | 400 kts | 31° |
| 2026-04-24 14:55 | 41.30356 | -73.23194 | 21577 ft | 403 kts | 31° |
| 2026-04-24 14:55 | 41.32446 | -73.20687 | 22050 ft | 405 kts | 31° |
| 2026-04-24 14:56 | 41.34548 | -73.18163 | 22499 ft | 408 kts | 31° |
| 2026-04-24 14:56 | 41.36642 | -73.15576 | 22988 ft | 416 kts | 34° |
| 2026-04-24 14:56 | 41.38542 | -73.12590 | 23441 ft | 431 kts | 44° |
| 2026-04-24 14:56 | 41.40219 | -73.09290 | 23810 ft | 438 kts | 46° |
| 2026-04-24 14:57 | 41.41852 | -73.05780 | 24189 ft | 443 kts | 49° |
| 2026-04-24 14:57 | 41.43403 | -73.02273 | 24590 ft | 445 kts | 49° |
| 2026-04-24 14:57 | 41.44954 | -72.98692 | 24974 ft | 447 kts | 50° |
| 2026-04-24 14:57 | 41.46503 | -72.95103 | 25357 ft | 448 kts | 50° |
| 2026-04-24 14:58 | 41.48076 | -72.91478 | 25664 ft | 453 kts | 50° |
| 2026-04-24 14:58 | 41.49667 | -72.87830 | 25967 ft | 455 kts | 50° |
| 2026-04-24 14:58 | 41.51263 | -72.84181 | 26338 ft | 457 kts | 50° |
| 2026-04-24 14:58 | 41.52872 | -72.80506 | 26701 ft | 458 kts | 50° |
| 2026-04-24 14:59 | 41.54465 | -72.76869 | 27035 ft | 459 kts | 50° |
| 2026-04-24 14:59 | 41.56082 | -72.73176 | 27387 ft | 461 kts | 50° |
| 2026-04-24 14:59 | 41.57706 | -72.69465 | 27717 ft | 463 kts | 50° |
| 2026-04-24 14:59 | 41.59334 | -72.65740 | 28029 ft | 465 kts | 50° |
| 2026-04-24 15:00 | 41.60966 | -72.62002 | 28343 ft | 466 kts | 50° |
| 2026-04-24 15:00 | 41.62599 | -72.58257 | 28662 ft | 468 kts | 51° |
| 2026-04-24 15:00 | 41.64239 | -72.54488 | 28948 ft | 470 kts | 51° |
| 2026-04-24 15:00 | 41.65902 | -72.50709 | 29223 ft | 471 kts | 51° |
| 2026-04-24 15:01 | 41.67593 | -72.46952 | 29506 ft | 472 kts | 51° |
| 2026-04-24 15:01 | 41.69305 | -72.43181 | 29772 ft | 474 kts | 51° |
| 2026-04-24 15:01 | 41.71019 | -72.39408 | 30038 ft | 476 kts | 51° |
| 2026-04-24 15:01 | 41.72740 | -72.35609 | 30257 ft | 478 kts | 51° |
| 2026-04-24 15:02 | 41.74437 | -72.31849 | 30472 ft | 479 kts | 52° |
| 2026-04-24 15:02 | 41.76162 | -72.28012 | 30691 ft | 480 kts | 52° |
| 2026-04-24 15:02 | 41.77886 | -72.24166 | 30934 ft | 482 kts | 52° |
| 2026-04-24 15:02 | 41.79610 | -72.20306 | 31206 ft | 481 kts | 52° |
| 2026-04-24 15:03 | 41.81326 | -72.16458 | 31525 ft | 480 kts | 52° |
| 2026-04-24 15:03 | 41.83033 | -72.12627 | 31887 ft | 478 kts | 53° |
| 2026-04-24 15:03 | 41.84735 | -72.08802 | 32239 ft | 476 kts | 53° |
| 2026-04-24 15:03 | 41.86427 | -72.04998 | 32540 ft | 475 kts | 53° |
| 2026-04-24 15:04 | 41.88119 | -72.01191 | 32835 ft | 474 kts | 53° |
| 2026-04-24 15:04 | 41.89806 | -71.97395 | 33116 ft | 473 kts | 53° |
| 2026-04-24 15:04 | 41.91491 | -71.93595 | 33386 ft | 472 kts | 53° |
| 2026-04-24 15:04 | 41.93150 | -71.89851 | 33704 ft | 471 kts | 53° |
| 2026-04-24 15:05 | 41.94822 | -71.86070 | 33978 ft | 470 kts | 53° |
| 2026-04-24 15:05 | 41.96496 | -71.82305 | 34186 ft | 469 kts | 52° |
| 2026-04-24 15:05 | 41.98225 | -71.78589 | 34449 ft | 466 kts | 51° |
| 2026-04-24 15:05 | 41.99978 | -71.74931 | 34696 ft | 465 kts | 50° |
| 2026-04-24 15:06 | 42.01739 | -71.71287 | 34886 ft | 464 kts | 50° |
| 2026-04-24 15:06 | 42.03500 | -71.67640 | 35060 ft | 465 kts | 50° |
| 2026-04-24 15:06 | 42.05256 | -71.63981 | 35245 ft | 464 kts | 51° |
| 2026-04-24 15:06 | 42.06981 | -71.60367 | 35441 ft | 464 kts | 51° |
| 2026-04-24 15:07 | 42.08719 | -71.56704 | 35621 ft | 464 kts | 51° |
| 2026-04-24 15:07 | 42.10451 | -71.53040 | 35822 ft | 464 kts | 50° |
| 2026-04-24 15:07 | 42.12182 | -71.49369 | 36016 ft | 464 kts | 50° |
| 2026-04-24 15:07 | 42.13907 | -71.45708 | 36194 ft | 463 kts | 50° |
| 2026-04-24 15:08 | 42.15630 | -71.42043 | 36381 ft | 463 kts | 50° |
| 2026-04-24 15:08 | 42.17356 | -71.38372 | 36538 ft | 462 kts | 50° |
| 2026-04-24 15:08 | 42.19077 | -71.34706 | 36697 ft | 462 kts | 50° |
| 2026-04-24 15:08 | 42.20794 | -71.31046 | 36862 ft | 462 kts | 50° |
| 2026-04-24 15:09 | 42.22519 | -71.27365 | 36932 ft | 464 kts | 50° |
| 2026-04-24 15:09 | 42.25931 | -71.20068 | 36942 ft | 461 kts | 50° |
| 2026-04-24 15:10 | 42.29350 | -71.12734 | 36943 ft | 460 kts | 50° |
| 2026-04-24 15:10 | 42.32761 | -71.05405 | 36944 ft | 460 kts | 50° |
| 2026-04-24 15:11 | 42.35845 | -70.97768 | 36942 ft | 471 kts | 62° |
| 2026-04-24 15:11 | 42.37924 | -70.89295 | 36943 ft | 476 kts | 66° |
| 2026-04-24 15:12 | 42.39796 | -70.80657 | 36959 ft | 480 kts | 66° |
| 2026-04-24 15:12 | 42.42555 | -70.67668 | 36933 ft | 481 kts | 66° |
| 2026-04-24 15:13 | 42.44414 | -70.58977 | 36935 ft | 481 kts | 66° |
| 2026-04-24 15:13 | 42.46281 | -70.50264 | 36945 ft | 482 kts | 66° |
| 2026-04-24 15:14 | 42.48154 | -70.41503 | 36938 ft | 486 kts | 66° |
| 2026-04-24 15:14 | 42.50025 | -70.32697 | 36940 ft | 486 kts | 66° |
| 2026-04-24 15:15 | 42.51885 | -70.23889 | 36942 ft | 485 kts | 66° |
| 2026-04-24 15:15 | 42.53724 | -70.15154 | 36944 ft | 484 kts | 67° |
| 2026-04-24 15:16 | 42.55569 | -70.06357 | 36943 ft | 484 kts | 67° |
| 2026-04-24 15:16 | 42.57408 | -69.97555 | 36943 ft | 484 kts | 67° |
| 2026-04-24 15:17 | 42.59238 | -69.88756 | 36938 ft | 484 kts | 67° |
| 2026-04-24 15:17 | 42.61061 | -69.79954 | 36950 ft | 484 kts | 67° |
| 2026-04-24 15:18 | 42.62862 | -69.71213 | 36936 ft | 483 kts | 67° |
| 2026-04-24 15:18 | 42.64666 | -69.62430 | 36933 ft | 482 kts | 67° |
| 2026-04-24 15:19 | 42.66461 | -69.53652 | 36930 ft | 483 kts | 68° |
| 2026-04-24 15:19 | 42.68252 | -69.44856 | 36928 ft | 483 kts | 68° |
| 2026-04-24 15:20 | 42.70037 | -69.36050 | 36925 ft | 483 kts | 68° |
| 2026-04-24 15:20 | 42.71815 | -69.27235 | 36926 ft | 482 kts | 68° |
| 2026-04-24 15:21 | 42.73571 | -69.18493 | 36954 ft | 482 kts | 68° |
| 2026-04-24 15:21 | 42.75330 | -69.09699 | 36922 ft | 482 kts | 68° |
| 2026-04-24 15:22 | 42.77087 | -69.00880 | 36920 ft | 482 kts | 68° |
| 2026-04-24 15:23 | 42.79704 | -68.87667 | 36916 ft | 482 kts | 68° |
| 2026-04-24 15:23 | 42.82312 | -68.74411 | 36919 ft | 483 kts | 68° |
| 2026-04-24 15:25 | 42.86329 | -68.53817 | 36910 ft | 483 kts | 68° |
| 2026-04-24 15:26 | 42.90896 | -68.30137 | 36908 ft | 484 kts | 69° |
| 2026-04-24 15:27 | 42.95955 | -68.03567 | 36902 ft | 484 kts | 69° |
| 2026-04-24 15:29 | 43.01124 | -67.76898 | 36901 ft | 478 kts | 62° |
| 2026-04-24 15:31 | 43.10925 | -67.50189 | 36892 ft | 471 kts | 56° |
| 2026-04-24 15:33 | 43.22891 | -67.18343 | 36882 ft | 470 kts | 57° |
| 2026-04-24 15:34 | 43.30821 | -66.97017 | 36876 ft | 473 kts | 57° |
| 2026-04-24 15:35 | 43.37775 | -66.78175 | 36864 ft | 473 kts | 58° |
| 2026-04-24 15:36 | 43.40721 | -66.70153 | 36865 ft | 473 kts | 58° |
| 2026-04-24 15:36 | 43.45161 | -66.58027 | 36866 ft | 473 kts | 58° |
| 2026-04-24 15:37 | 43.48109 | -66.49942 | 36860 ft | 473 kts | 58° |
| 2026-04-24 15:37 | 43.51061 | -66.41826 | 36848 ft | 474 kts | 58° |
| 2026-04-24 15:38 | 43.54008 | -66.33698 | 36849 ft | 474 kts | 58° |
| 2026-04-24 15:38 | 43.56951 | -66.25557 | 36845 ft | 474 kts | 58° |
| 2026-04-24 15:39 | 43.59864 | -66.17474 | 36835 ft | 474 kts | 58° |
| 2026-04-24 15:39 | 43.62794 | -66.09324 | 36834 ft | 474 kts | 59° |
| 2026-04-24 15:40 | 43.65715 | -66.01170 | 36832 ft | 473 kts | 59° |
| 2026-04-24 15:40 | 43.68633 | -65.93004 | 36837 ft | 474 kts | 59° |
| 2026-04-24 15:41 | 43.71552 | -65.84812 | 36831 ft | 475 kts | 59° |
| 2026-04-24 15:41 | 43.74469 | -65.76600 | 36818 ft | 475 kts | 59° |
| 2026-04-24 15:42 | 43.77357 | -65.68443 | 36815 ft | 475 kts | 59° |
| 2026-04-24 15:42 | 43.80255 | -65.60232 | 36828 ft | 474 kts | 60° |
| 2026-04-24 15:43 | 43.83147 | -65.52018 | 36815 ft | 475 kts | 60° |
| 2026-04-24 15:43 | 43.86034 | -65.43789 | 36824 ft | 475 kts | 60° |
| 2026-04-24 15:44 | 43.88916 | -65.35553 | 36836 ft | 474 kts | 60° |
| 2026-04-24 15:44 | 43.91797 | -65.27296 | 36817 ft | 475 kts | 60° |
| 2026-04-24 15:45 | 43.94670 | -65.19034 | 36818 ft | 476 kts | 60° |
| 2026-04-24 15:45 | 43.97538 | -65.10761 | 36822 ft | 476 kts | 60° |
| 2026-04-24 15:46 | 44.00386 | -65.02521 | 36822 ft | 476 kts | 60° |
| 2026-04-24 15:46 | 44.03248 | -64.94218 | 36820 ft | 476 kts | 60° |
| 2026-04-24 15:47 | 44.06102 | -64.85910 | 36817 ft | 476 kts | 60° |
| 2026-04-24 15:47 | 44.08952 | -64.77588 | 36819 ft | 476 kts | 60° |
| 2026-04-24 15:48 | 44.11796 | -64.69258 | 36818 ft | 477 kts | 61° |
| 2026-04-24 15:48 | 44.14620 | -64.60963 | 36818 ft | 477 kts | 61° |
| 2026-04-24 15:49 | 44.17454 | -64.52609 | 36813 ft | 477 kts | 61° |
| 2026-04-24 15:49 | 44.20283 | -64.44246 | 36807 ft | 477 kts | 61° |
| 2026-04-24 15:50 | 44.23107 | -64.35873 | 36810 ft | 476 kts | 62° |
| 2026-04-24 15:50 | 44.25918 | -64.27511 | 36804 ft | 476 kts | 62° |
| 2026-04-24 15:51 | 44.28720 | -64.19149 | 36801 ft | 476 kts | 62° |
| 2026-04-24 15:51 | 44.31519 | -64.10771 | 36800 ft | 476 kts | 62° |
| 2026-04-24 15:52 | 44.34300 | -64.02420 | 36800 ft | 477 kts | 62° |
| 2026-04-24 15:52 | 44.37087 | -63.94025 | 36796 ft | 476 kts | 62° |
| 2026-04-24 15:53 | 44.39868 | -63.85619 | 36796 ft | 476 kts | 62° |
| 2026-04-24 15:53 | 44.42644 | -63.77206 | 36801 ft | 476 kts | 62° |
| 2026-04-24 15:54 | 44.45410 | -63.68795 | 36799 ft | 476 kts | 62° |
| 2026-04-24 15:54 | 44.48167 | -63.60384 | 36802 ft | 475 kts | 63° |
| 2026-04-24 15:55 | 44.50915 | -63.51971 | 36808 ft | 474 kts | 63° |
| 2026-04-24 15:55 | 44.53644 | -63.43596 | 36810 ft | 475 kts | 63° |
| 2026-04-24 15:56 | 44.56385 | -63.35153 | 36809 ft | 475 kts | 63° |
| 2026-04-24 15:56 | 44.59117 | -63.26710 | 36817 ft | 475 kts | 63° |
| 2026-04-24 15:57 | 44.61841 | -63.18266 | 36815 ft | 474 kts | 63° |
| 2026-04-24 15:57 | 44.64560 | -63.09810 | 36803 ft | 474 kts | 63° |
| 2026-04-24 15:58 | 44.67266 | -63.01367 | 36800 ft | 474 kts | 63° |
| 2026-04-24 15:58 | 44.69947 | -62.92975 | 36823 ft | 474 kts | 63° |
| 2026-04-24 15:59 | 44.72645 | -62.84504 | 36812 ft | 474 kts | 64° |
| 2026-04-24 15:59 | 44.75335 | -62.76029 | 36809 ft | 474 kts | 64° |
| 2026-04-24 16:00 | 44.78016 | -62.67554 | 36816 ft | 474 kts | 64° |
| 2026-04-24 16:00 | 44.80694 | -62.59063 | 36814 ft | 474 kts | 64° |
| 2026-04-24 16:01 | 44.83365 | -62.50563 | 36812 ft | 474 kts | 64° |
| 2026-04-24 16:01 | 44.86024 | -62.42074 | 36813 ft | 473 kts | 64° |
| 2026-04-24 16:02 | 44.88662 | -62.33627 | 36815 ft | 473 kts | 64° |
| 2026-04-24 16:02 | 44.91312 | -62.25112 | 36822 ft | 473 kts | 64° |
| 2026-04-24 16:03 | 44.93953 | -62.16600 | 36817 ft | 474 kts | 65° |
| 2026-04-24 16:03 | 44.96584 | -62.08089 | 36814 ft | 473 kts | 65° |
| 2026-04-24 16:04 | 44.99212 | -61.99561 | 36815 ft | 473 kts | 65° |
| 2026-04-24 16:04 | 45.01816 | -61.91082 | 36813 ft | 473 kts | 65° |
| 2026-04-24 16:05 | 45.05735 | -61.78265 | 36819 ft | 472 kts | 65° |
| 2026-04-24 16:06 | 45.09635 | -61.65450 | 36815 ft | 472 kts | 65° |
| 2026-04-24 16:07 | 45.13515 | -61.52635 | 36816 ft | 472 kts | 65° |
| 2026-04-24 16:07 | 45.17378 | -61.39813 | 36817 ft | 472 kts | 65° |
| 2026-04-24 16:08 | 45.21209 | -61.27032 | 36813 ft | 472 kts | 65° |
| 2026-04-24 16:09 | 45.25046 | -61.14165 | 36817 ft | 472 kts | 66° |
| 2026-04-24 16:09 | 45.27595 | -61.05578 | 36813 ft | 472 kts | 66° |
| 2026-04-24 16:11 | 45.33922 | -60.84142 | 36811 ft | 471 kts | 66° |
| 2026-04-24 16:11 | 45.36442 | -60.75551 | 36810 ft | 471 kts | 66° |
| 2026-04-24 16:12 | 45.40209 | -60.62659 | 36806 ft | 470 kts | 67° |
| 2026-04-24 16:13 | 45.43952 | -60.49777 | 36801 ft | 470 kts | 67° |
| 2026-04-24 16:14 | 45.48935 | -60.32525 | 36810 ft | 470 kts | 67° |
| 2026-04-24 16:14 | 45.52648 | -60.19596 | 36799 ft | 468 kts | 68° |
| 2026-04-24 16:15 | 45.56311 | -60.06768 | 36799 ft | 468 kts | 68° |
| 2026-04-24 16:16 | 45.59979 | -59.93853 | 36795 ft | 467 kts | 68° |
| 2026-04-24 16:17 | 45.66055 | -59.72316 | 36805 ft | 467 kts | 68° |
| 2026-04-24 16:18 | 45.70867 | -59.55119 | 36806 ft | 467 kts | 69° |
| 2026-04-24 16:19 | 45.74468 | -59.42173 | 36794 ft | 466 kts | 69° |
| 2026-04-24 16:20 | 45.78049 | -59.29227 | 36798 ft | 466 kts | 69° |
| 2026-04-24 16:20 | 45.81220 | -59.17710 | 36795 ft | 466 kts | 69° |
| 2026-04-24 16:21 | 45.85157 | -59.03325 | 36787 ft | 465 kts | 69° |
| 2026-04-24 16:22 | 45.87133 | -58.96076 | 36792 ft | 465 kts | 69° |
| 2026-04-24 16:22 | 45.90646 | -58.83127 | 36781 ft | 464 kts | 69° |
| 2026-04-24 16:23 | 45.92964 | -58.74549 | 36785 ft | 464 kts | 70° |
| 2026-04-24 16:24 | 45.96455 | -58.61566 | 36781 ft | 464 kts | 70° |
| 2026-04-24 16:24 | 45.98770 | -58.52918 | 36770 ft | 464 kts | 70° |
| 2026-04-24 16:25 | 46.01083 | -58.44250 | 36770 ft | 463 kts | 70° |
| 2026-04-24 16:25 | 46.03385 | -58.35583 | 36768 ft | 463 kts | 70° |
| 2026-04-24 16:26 | 46.06807 | -58.22644 | 36765 ft | 463 kts | 70° |
| 2026-04-24 16:27 | 46.10237 | -58.09612 | 36763 ft | 464 kts | 71° |
| 2026-04-24 16:27 | 46.12512 | -58.00921 | 36758 ft | 463 kts | 70° |
| 2026-04-24 16:28 | 46.14781 | -57.92222 | 36756 ft | 463 kts | 71° |
| 2026-04-24 16:28 | 46.18157 | -57.79224 | 36756 ft | 463 kts | 71° |
| 2026-04-24 16:29 | 46.20411 | -57.70505 | 36746 ft | 463 kts | 71° |
| 2026-04-24 16:30 | 46.24896 | -57.53047 | 36746 ft | 464 kts | 71° |
| 2026-04-24 16:30 | 46.27136 | -57.44286 | 36740 ft | 465 kts | 71° |
| 2026-04-24 16:31 | 46.29370 | -57.35509 | 36737 ft | 465 kts | 72° |
| 2026-04-24 16:31 | 46.31594 | -57.26734 | 36740 ft | 465 kts | 71° |
| 2026-04-24 16:32 | 46.33798 | -57.18012 | 36739 ft | 464 kts | 71° |
| 2026-04-24 16:32 | 46.36008 | -57.09231 | 36731 ft | 464 kts | 71° |
| 2026-04-24 16:33 | 46.38214 | -57.00433 | 36732 ft | 464 kts | 71° |
| 2026-04-24 16:33 | 46.40412 | -56.91634 | 36732 ft | 464 kts | 71° |
| 2026-04-24 16:34 | 46.42601 | -56.82836 | 36722 ft | 464 kts | 72° |
| 2026-04-24 16:34 | 46.44787 | -56.74015 | 36722 ft | 465 kts | 72° |
| 2026-04-24 16:35 | 46.46951 | -56.65244 | 36718 ft | 465 kts | 72° |
| 2026-04-24 16:35 | 46.49122 | -56.56416 | 36707 ft | 464 kts | 72° |
| 2026-04-24 16:36 | 46.51284 | -56.47586 | 36707 ft | 464 kts | 72° |
| 2026-04-24 16:36 | 46.53440 | -56.38746 | 36708 ft | 464 kts | 72° |
| 2026-04-24 16:37 | 46.55589 | -56.29904 | 36703 ft | 464 kts | 72° |
| 2026-04-24 16:37 | 46.57732 | -56.21048 | 36685 ft | 464 kts | 72° |
| 2026-04-24 16:38 | 46.59868 | -56.12185 | 36692 ft | 466 kts | 72° |
| 2026-04-24 16:38 | 46.62008 | -56.03271 | 36692 ft | 466 kts | 72° |
| 2026-04-24 16:39 | 46.64142 | -55.94348 | 36692 ft | 466 kts | 72° |
| 2026-04-24 16:39 | 46.66253 | -55.85483 | 36694 ft | 466 kts | 72° |
| 2026-04-24 16:40 | 46.68371 | -55.76553 | 36691 ft | 466 kts | 73° |
| 2026-04-24 16:40 | 46.70482 | -55.67618 | 36681 ft | 465 kts | 73° |
| 2026-04-24 16:41 | 46.72582 | -55.58693 | 36674 ft | 465 kts | 73° |
| 2026-04-24 16:41 | 46.74688 | -55.49781 | 36685 ft | 465 kts | 72° |
| 2026-04-24 16:42 | 46.76793 | -55.40852 | 36668 ft | 464 kts | 72° |
| 2026-04-24 16:42 | 46.78862 | -55.31981 | 36671 ft | 461 kts | 73° |
| 2026-04-24 16:43 | 46.80897 | -55.23187 | 36675 ft | 460 kts | 73° |
| 2026-04-24 16:43 | 46.82936 | -55.14335 | 36675 ft | 460 kts | 73° |
| 2026-04-24 16:44 | 46.84970 | -55.05470 | 36674 ft | 460 kts | 73° |
| 2026-04-24 16:44 | 46.86995 | -54.96610 | 36675 ft | 460 kts | 73° |
| 2026-04-24 16:45 | 46.89018 | -54.87725 | 36675 ft | 459 kts | 73° |
| 2026-04-24 16:45 | 46.91028 | -54.78863 | 36668 ft | 459 kts | 73° |
| 2026-04-24 16:46 | 46.93030 | -54.69993 | 36670 ft | 459 kts | 73° |
| 2026-04-24 16:46 | 46.95014 | -54.61171 | 36670 ft | 459 kts | 73° |
| 2026-04-24 16:47 | 46.97003 | -54.52286 | 36665 ft | 459 kts | 73° |
| 2026-04-24 16:47 | 46.98985 | -54.43395 | 36672 ft | 459 kts | 73° |
| 2026-04-24 16:48 | 47.00958 | -54.34512 | 36673 ft | 459 kts | 73° |
| 2026-04-24 16:48 | 47.02925 | -54.25612 | 36669 ft | 459 kts | 73° |
| 2026-04-24 16:49 | 47.04884 | -54.16715 | 36671 ft | 458 kts | 73° |
| 2026-04-24 16:49 | 47.06836 | -54.07809 | 36671 ft | 458 kts | 74° |
| 2026-04-24 16:50 | 47.08781 | -53.98904 | 36675 ft | 459 kts | 74° |
| 2026-04-24 16:50 | 47.10710 | -53.90029 | 36675 ft | 460 kts | 74° |
| 2026-04-24 16:51 | 47.12648 | -53.81073 | 36680 ft | 460 kts | 74° |
| 2026-04-24 16:51 | 47.14583 | -53.72094 | 36680 ft | 460 kts | 74° |
| 2026-04-24 16:52 | 47.16509 | -53.63115 | 36654 ft | 460 kts | 74° |
| 2026-04-24 16:52 | 47.18417 | -53.54183 | 36675 ft | 460 kts | 74° |
| 2026-04-24 16:53 | 47.20330 | -53.45190 | 36685 ft | 460 kts | 74° |
| 2026-04-24 16:53 | 47.22237 | -53.36185 | 36678 ft | 460 kts | 75° |
| 2026-04-24 16:54 | 47.24133 | -53.27191 | 36683 ft | 460 kts | 75° |
| 2026-04-24 16:54 | 47.26024 | -53.18178 | 36683 ft | 461 kts | 75° |
| 2026-04-24 16:55 | 47.27916 | -53.09119 | 36686 ft | 463 kts | 75° |
| 2026-04-24 16:55 | 47.29803 | -53.00048 | 36686 ft | 463 kts | 75° |
| 2026-04-24 16:56 | 47.31686 | -52.90959 | 36674 ft | 463 kts | 75° |
| 2026-04-24 16:56 | 47.33547 | -52.81930 | 36674 ft | 463 kts | 75° |
| 2026-04-24 16:57 | 47.35417 | -52.72815 | 36657 ft | 463 kts | 75° |
| 2026-04-24 16:57 | 47.37277 | -52.63709 | 36666 ft | 463 kts | 75° |
| 2026-04-24 16:58 | 47.39129 | -52.54602 | 36663 ft | 463 kts | 75° |
| 2026-04-24 16:58 | 47.40977 | -52.45474 | 36670 ft | 463 kts | 76° |
| 2026-04-24 16:59 | 47.42808 | -52.36384 | 36675 ft | 465 kts | 76° |
| 2026-04-24 17:00 | 47.45567 | -52.22607 | 36669 ft | 466 kts | 76° |
| 2026-04-24 17:00 | 47.48295 | -52.08889 | 36666 ft | 466 kts | 76° |
| 2026-04-24 17:01 | 47.51102 | -51.95137 | 36670 ft | 467 kts | 72° |
| 2026-04-24 17:02 | 47.54702 | -51.81697 | 36667 ft | 468 kts | 70° |
| 2026-04-24 17:02 | 47.57111 | -51.72760 | 36670 ft | 467 kts | 71° |
| 2026-04-24 17:03 | 47.60612 | -51.59257 | 36672 ft | 468 kts | 72° |
| 2026-04-24 17:04 | 47.62919 | -51.50226 | 36675 ft | 469 kts | 72° |
| 2026-04-24 17:04 | 47.66361 | -51.36701 | 36675 ft | 469 kts | 72° |
| 2026-04-24 17:05 | 47.68659 | -51.27638 | 36675 ft | 468 kts | 72° |
| 2026-04-24 17:06 | 47.72086 | -51.14057 | 36680 ft | 468 kts | 72° |
| 2026-04-24 17:06 | 47.75497 | -51.00454 | 36678 ft | 468 kts | 72° |
| 2026-04-24 17:07 | 47.77759 | -50.91390 | 36678 ft | 467 kts | 72° |
| 2026-04-24 17:08 | 47.82244 | -50.73304 | 36676 ft | 467 kts | 73° |
| 2026-04-24 17:08 | 47.84488 | -50.64199 | 36660 ft | 469 kts | 73° |
| 2026-04-24 17:09 | 47.88567 | -50.47460 | 36688 ft | 469 kts | 73° |
| 2026-04-24 17:10 | 47.93024 | -50.29148 | 36692 ft | 469 kts | 73° |
| 2026-04-24 17:12 | 48.01853 | -49.92555 | 36697 ft | 469 kts | 72° |
| 2026-04-24 18:54 | 52.02391 | -29.83640 | 38737 ft | 481 kts | 78° |
| 2026-04-24 18:55 | 52.04649 | -29.67735 | 38741 ft | 481 kts | 78° |
| 2026-04-24 18:56 | 52.06143 | -29.57176 | 38740 ft | 479 kts | 78° |
| 2026-04-24 18:56 | 52.07620 | -29.46693 | 38744 ft | 478 kts | 78° |
| 2026-04-24 18:57 | 52.09096 | -29.36145 | 38744 ft | 478 kts | 78° |
| 2026-04-24 18:57 | 52.10562 | -29.25582 | 38744 ft | 479 kts | 78° |
| 2026-04-24 18:58 | 52.12019 | -29.15010 | 38746 ft | 477 kts | 78° |
| 2026-04-24 18:58 | 52.13459 | -29.04488 | 38752 ft | 476 kts | 78° |
| 2026-04-24 18:59 | 52.14886 | -28.93975 | 38742 ft | 476 kts | 78° |
| 2026-04-24 18:59 | 52.16311 | -28.83407 | 38755 ft | 478 kts | 78° |
| 2026-04-24 19:00 | 52.17729 | -28.72810 | 38754 ft | 479 kts | 78° |
| 2026-04-24 19:00 | 52.19139 | -28.62207 | 38760 ft | 478 kts | 78° |
| 2026-04-24 19:01 | 52.20525 | -28.51697 | 38763 ft | 477 kts | 79° |
| 2026-04-24 19:01 | 52.21910 | -28.41120 | 38761 ft | 477 kts | 79° |
| 2026-04-24 19:02 | 52.23065 | -28.32243 | 38766 ft | 477 kts | 79° |
| 2026-04-24 19:02 | 52.24652 | -28.19946 | 38768 ft | 476 kts | 79° |
| 2026-04-24 19:03 | 52.26003 | -28.09400 | 38768 ft | 474 kts | 79° |
| 2026-04-24 19:03 | 52.27341 | -27.98865 | 38769 ft | 474 kts | 79° |
| 2026-04-24 19:04 | 52.28670 | -27.88319 | 38774 ft | 474 kts | 79° |
| 2026-04-24 19:04 | 52.29989 | -27.77780 | 38774 ft | 474 kts | 79° |
| 2026-04-24 19:05 | 52.31291 | -27.67294 | 38771 ft | 473 kts | 80° |
| 2026-04-24 19:05 | 52.32590 | -27.56750 | 38771 ft | 472 kts | 80° |
| 2026-04-24 19:06 | 52.33881 | -27.46208 | 38777 ft | 472 kts | 80° |
| 2026-04-24 19:06 | 52.35160 | -27.35656 | 38782 ft | 472 kts | 80° |
| 2026-04-24 19:07 | 52.36423 | -27.25155 | 38777 ft | 472 kts | 80° |
| 2026-04-24 19:07 | 52.37478 | -27.16324 | 38784 ft | 471 kts | 80° |
| 2026-04-24 19:08 | 52.38926 | -27.04098 | 38782 ft | 470 kts | 81° |
| 2026-04-24 19:08 | 52.40162 | -26.93564 | 38786 ft | 470 kts | 80° |
| 2026-04-24 19:09 | 52.41389 | -26.83029 | 38782 ft | 471 kts | 80° |
| 2026-04-24 19:09 | 52.42607 | -26.72508 | 38790 ft | 473 kts | 81° |
| 2026-04-24 19:10 | 52.43820 | -26.61935 | 38789 ft | 472 kts | 81° |
| 2026-04-24 19:10 | 52.45022 | -26.51349 | 38795 ft | 472 kts | 81° |
| 2026-04-24 19:11 | 52.46213 | -26.40777 | 38795 ft | 472 kts | 81° |
| 2026-04-24 19:11 | 52.47396 | -26.30184 | 38798 ft | 472 kts | 81° |
| 2026-04-24 19:12 | 52.48562 | -26.19652 | 38798 ft | 472 kts | 81° |
| 2026-04-24 19:12 | 52.49725 | -26.09058 | 38801 ft | 472 kts | 81° |
| 2026-04-24 19:13 | 52.50694 | -26.00182 | 38803 ft | 472 kts | 82° |
| 2026-04-24 19:13 | 52.52026 | -25.87844 | 38803 ft | 472 kts | 82° |
| 2026-04-24 19:14 | 52.53161 | -25.77234 | 38803 ft | 472 kts | 82° |
| 2026-04-24 19:14 | 52.54287 | -25.66630 | 38809 ft | 470 kts | 82° |
| 2026-04-24 19:15 | 52.55400 | -25.56047 | 38816 ft | 470 kts | 82° |
| 2026-04-24 19:15 | 52.56501 | -25.45465 | 38811 ft | 470 kts | 82° |
| 2026-04-24 19:16 | 52.58130 | -25.29642 | 38816 ft | 470 kts | 82° |
| 2026-04-24 19:16 | 52.59207 | -25.19060 | 38816 ft | 469 kts | 83° |
| 2026-04-24 19:17 | 52.60274 | -25.08486 | 38821 ft | 468 kts | 83° |
| 2026-04-24 19:17 | 52.61332 | -24.97893 | 38825 ft | 468 kts | 82° |
| 2026-04-24 19:18 | 52.62379 | -24.87315 | 38828 ft | 468 kts | 82° |
| 2026-04-24 19:18 | 52.63416 | -24.76734 | 38816 ft | 468 kts | 83° |
| 2026-04-24 19:19 | 52.64445 | -24.66144 | 38828 ft | 468 kts | 83° |
| 2026-04-24 19:19 | 52.65456 | -24.55626 | 38843 ft | 468 kts | 83° |
| 2026-04-24 19:20 | 52.66464 | -24.45040 | 38844 ft | 468 kts | 83° |
| 2026-04-24 19:20 | 52.67465 | -24.34433 | 38844 ft | 468 kts | 83° |
| 2026-04-24 19:21 | 52.68455 | -24.23831 | 38841 ft | 467 kts | 83° |
| 2026-04-24 19:21 | 52.69432 | -24.13256 | 38846 ft | 466 kts | 83° |
| 2026-04-24 19:22 | 52.70398 | -24.02700 | 38848 ft | 466 kts | 83° |
| 2026-04-24 19:22 | 52.71355 | -23.92132 | 38844 ft | 466 kts | 83° |
| 2026-04-24 19:23 | 52.72303 | -23.81561 | 38850 ft | 466 kts | 84° |
| 2026-04-24 19:23 | 52.73241 | -23.70991 | 38855 ft | 465 kts | 84° |
| 2026-04-24 19:24 | 52.74161 | -23.60505 | 38851 ft | 464 kts | 84° |
| 2026-04-24 19:24 | 52.75079 | -23.49945 | 38858 ft | 464 kts | 84° |
| 2026-04-24 19:25 | 52.75986 | -23.39387 | 38859 ft | 464 kts | 84° |
| 2026-04-24 19:25 | 52.76884 | -23.28823 | 38868 ft | 464 kts | 84° |
| 2026-04-24 19:26 | 52.77772 | -23.18265 | 38865 ft | 463 kts | 84° |
| 2026-04-24 19:26 | 52.78649 | -23.07729 | 38873 ft | 463 kts | 84° |
| 2026-04-24 19:27 | 52.79516 | -22.97189 | 38867 ft | 463 kts | 84° |
| 2026-04-24 19:27 | 52.80374 | -22.86632 | 38875 ft | 463 kts | 84° |
| 2026-04-24 19:28 | 52.81217 | -22.76152 | 38876 ft | 463 kts | 85° |
| 2026-04-24 19:28 | 52.82055 | -22.65612 | 38880 ft | 462 kts | 85° |
| 2026-04-24 19:29 | 52.83295 | -22.49796 | 38889 ft | 463 kts | 85° |
| 2026-04-24 19:30 | 52.84110 | -22.39235 | 38888 ft | 463 kts | 85° |
| 2026-04-24 19:30 | 52.84917 | -22.28657 | 38895 ft | 463 kts | 85° |
| 2026-04-24 19:31 | 52.85712 | -22.18126 | 38885 ft | 463 kts | 85° |
| 2026-04-24 19:31 | 52.86498 | -22.07576 | 38902 ft | 462 kts | 85° |
| 2026-04-24 19:32 | 52.87273 | -21.97037 | 38906 ft | 461 kts | 85° |
| 2026-04-24 19:32 | 52.88040 | -21.86481 | 38909 ft | 461 kts | 85° |
| 2026-04-24 19:33 | 52.88797 | -21.75922 | 38905 ft | 461 kts | 85° |
| 2026-04-24 19:33 | 52.89545 | -21.65362 | 38907 ft | 461 kts | 86° |
| 2026-04-24 19:34 | 52.90158 | -21.56611 | 38905 ft | 461 kts | 86° |
| 2026-04-24 19:34 | 52.90887 | -21.46067 | 38915 ft | 460 kts | 86° |
| 2026-04-24 19:35 | 52.91607 | -21.35526 | 38917 ft | 460 kts | 86° |
| 2026-04-24 19:35 | 52.92318 | -21.24964 | 38926 ft | 460 kts | 86° |
| 2026-04-24 19:36 | 52.93019 | -21.14420 | 38929 ft | 460 kts | 86° |
| 2026-04-24 19:36 | 52.93711 | -21.03857 | 38925 ft | 461 kts | 86° |
| 2026-04-24 19:37 | 52.94393 | -20.93307 | 38931 ft | 461 kts | 86° |
| 2026-04-24 19:37 | 52.95067 | -20.82733 | 38929 ft | 460 kts | 86° |
| 2026-04-24 19:38 | 52.95725 | -20.72248 | 38931 ft | 460 kts | 86° |
| 2026-04-24 19:38 | 52.96380 | -20.61684 | 38935 ft | 459 kts | 87° |
| 2026-04-24 19:39 | 52.97023 | -20.51148 | 38936 ft | 459 kts | 87° |
| 2026-04-24 19:39 | 52.97656 | -20.40612 | 38939 ft | 460 kts | 87° |
| 2026-04-24 19:40 | 52.98283 | -20.30010 | 38941 ft | 461 kts | 87° |
| 2026-04-24 19:40 | 52.98901 | -20.19416 | 38946 ft | 461 kts | 87° |
| 2026-04-24 19:41 | 52.99510 | -20.08807 | 38946 ft | 461 kts | 87° |
| 2026-04-24 19:41 | 53.00522 | -19.98367 | 38955 ft | 464 kts | 75° |
| 2026-04-24 19:42 | 53.02614 | -19.88200 | 38952 ft | 466 kts | 72° |
| 2026-04-24 19:42 | 53.04888 | -19.78102 | 38961 ft | 466 kts | 72° |
| 2026-04-24 19:43 | 53.07175 | -19.68003 | 38952 ft | 466 kts | 72° |
| 2026-04-24 19:43 | 53.09432 | -19.57901 | 38962 ft | 465 kts | 72° |
| 2026-04-24 19:44 | 53.11669 | -19.47787 | 38966 ft | 465 kts | 73° |
| 2026-04-24 19:44 | 53.13892 | -19.37668 | 38970 ft | 465 kts | 73° |
| 2026-04-24 19:45 | 53.16108 | -19.27536 | 38980 ft | 465 kts | 73° |
| 2026-04-24 19:45 | 53.18302 | -19.17462 | 38973 ft | 465 kts | 73° |
| 2026-04-24 19:46 | 53.20501 | -19.07314 | 38980 ft | 465 kts | 73° |
| 2026-04-24 19:46 | 53.22689 | -18.97166 | 38982 ft | 465 kts | 73° |
| 2026-04-24 19:47 | 53.24867 | -18.87010 | 38994 ft | 464 kts | 73° |
| 2026-04-24 19:47 | 53.27032 | -18.76875 | 38990 ft | 462 kts | 73° |
| 2026-04-24 19:48 | 53.29182 | -18.66754 | 38990 ft | 461 kts | 73° |
| 2026-04-24 19:48 | 53.32367 | -18.51658 | 38999 ft | 461 kts | 73° |
| 2026-04-24 19:49 | 53.36605 | -18.31404 | 39002 ft | 461 kts | 74° |
| 2026-04-24 19:50 | 53.40808 | -18.11112 | 39008 ft | 460 kts | 74° |
| 2026-04-24 19:51 | 53.43919 | -17.95960 | 39015 ft | 460 kts | 74° |
| 2026-04-24 19:52 | 53.47021 | -17.80730 | 38999 ft | 460 kts | 74° |
| 2026-04-24 19:52 | 53.49081 | -17.70556 | 39017 ft | 459 kts | 74° |
| 2026-04-24 19:53 | 53.51122 | -17.60419 | 39026 ft | 458 kts | 74° |
| 2026-04-24 19:54 | 53.54176 | -17.45157 | 39028 ft | 458 kts | 75° |
| 2026-04-24 19:54 | 53.56197 | -17.34988 | 39031 ft | 458 kts | 75° |
| 2026-04-24 19:55 | 53.57868 | -17.26541 | 39030 ft | 458 kts | 75° |
| 2026-04-24 19:55 | 53.60209 | -17.14647 | 39028 ft | 458 kts | 75° |
| 2026-04-24 19:56 | 53.62204 | -17.04450 | 39045 ft | 458 kts | 75° |
| 2026-04-24 19:56 | 53.64187 | -16.94261 | 39036 ft | 458 kts | 75° |
| 2026-04-24 19:57 | 53.66150 | -16.84123 | 39030 ft | 458 kts | 75° |
| 2026-04-24 19:57 | 53.68114 | -16.73928 | 39043 ft | 456 kts | 75° |
| 2026-04-24 19:58 | 53.70066 | -16.63737 | 39053 ft | 456 kts | 75° |
| 2026-04-24 19:58 | 53.72009 | -16.53537 | 39045 ft | 456 kts | 75° |
| 2026-04-24 19:59 | 53.73940 | -16.43344 | 39058 ft | 456 kts | 75° |
| 2026-04-24 19:59 | 53.75853 | -16.33198 | 39057 ft | 456 kts | 75° |
| 2026-04-24 20:00 | 53.77768 | -16.22980 | 39059 ft | 456 kts | 75° |
| 2026-04-24 20:00 | 53.79675 | -16.12753 | 39063 ft | 456 kts | 76° |
| 2026-04-24 20:01 | 53.81573 | -16.02516 | 39059 ft | 455 kts | 76° |
| 2026-04-24 20:01 | 53.83462 | -15.92272 | 39060 ft | 455 kts | 76° |
| 2026-04-24 20:02 | 53.85024 | -15.83764 | 39058 ft | 455 kts | 76° |
| 2026-04-24 20:02 | 53.87206 | -15.71806 | 39064 ft | 454 kts | 76° |
| 2026-04-24 20:03 | 53.89049 | -15.61640 | 39071 ft | 454 kts | 76° |
| 2026-04-24 20:03 | 53.90892 | -15.51422 | 39072 ft | 454 kts | 76° |
| 2026-04-24 20:04 | 53.92733 | -15.41156 | 39072 ft | 454 kts | 76° |
| 2026-04-24 20:04 | 53.94563 | -15.30903 | 39066 ft | 452 kts | 76° |
| 2026-04-24 20:05 | 53.96371 | -15.20712 | 39074 ft | 450 kts | 77° |
| 2026-04-24 20:05 | 53.98155 | -15.10589 | 39081 ft | 450 kts | 77° |
| 2026-04-24 20:06 | 53.99719 | -15.00327 | 39086 ft | 446 kts | 85° |
| 2026-04-24 20:06 | 54.00075 | -14.89865 | 39082 ft | 443 kts | 92° |
| 2026-04-24 20:07 | 54.00121 | -14.81160 | 39092 ft | 442 kts | 93° |
| 2026-04-24 20:07 | 54.00113 | -14.68956 | 39094 ft | 441 kts | 93° |
| 2026-04-24 20:08 | 54.00109 | -14.58526 | 39091 ft | 441 kts | 93° |
| 2026-04-24 20:08 | 54.00108 | -14.48089 | 39101 ft | 442 kts | 93° |
| 2026-04-24 20:09 | 54.00103 | -14.37657 | 39105 ft | 441 kts | 93° |
| 2026-04-24 20:09 | 54.00089 | -14.27198 | 39095 ft | 441 kts | 93° |
| 2026-04-24 20:10 | 54.00065 | -14.16768 | 39105 ft | 441 kts | 94° |
| 2026-04-24 20:10 | 54.00030 | -14.06332 | 39104 ft | 441 kts | 94° |
| 2026-04-24 20:11 | 53.99155 | -13.96130 | 39114 ft | 434 kts | 109° |
| 2026-04-24 20:11 | 53.97341 | -13.86349 | 39111 ft | 434 kts | 111° |
| 2026-04-24 20:12 | 53.95382 | -13.76709 | 39094 ft | 434 kts | 111° |
| 2026-04-24 20:12 | 53.93385 | -13.66980 | 39113 ft | 438 kts | 111° |
| 2026-04-24 20:13 | 53.91390 | -13.57198 | 39114 ft | 438 kts | 111° |
| 2026-04-24 20:13 | 53.89396 | -13.47414 | 39120 ft | 439 kts | 111° |
| 2026-04-24 20:14 | 53.87395 | -13.37636 | 39117 ft | 438 kts | 111° |
| 2026-04-24 20:14 | 53.85387 | -13.27875 | 39118 ft | 439 kts | 111° |
| 2026-04-24 20:15 | 53.83370 | -13.18125 | 39122 ft | 438 kts | 111° |
| 2026-04-24 20:15 | 53.81358 | -13.08446 | 39121 ft | 437 kts | 112° |
| 2026-04-24 20:16 | 53.79334 | -12.98754 | 39125 ft | 437 kts | 112° |
| 2026-04-24 20:16 | 53.77292 | -12.89038 | 39126 ft | 440 kts | 112° |
| 2026-04-24 20:17 | 53.75234 | -12.79281 | 39126 ft | 441 kts | 112° |
| 2026-04-24 20:17 | 53.72128 | -12.64637 | 39124 ft | 441 kts | 112° |
| 2026-04-24 20:18 | 53.70047 | -12.54886 | 39116 ft | 441 kts | 112° |
| 2026-04-24 20:18 | 53.67972 | -12.45205 | 39127 ft | 437 kts | 112° |
| 2026-04-24 20:19 | 53.65894 | -12.35563 | 39127 ft | 437 kts | 112° |
| 2026-04-24 20:19 | 53.63810 | -12.25944 | 39129 ft | 437 kts | 112° |
| 2026-04-24 20:20 | 53.62074 | -12.17960 | 39133 ft | 437 kts | 112° |
| 2026-04-24 20:20 | 53.59613 | -12.06704 | 39130 ft | 443 kts | 112° |
| 2026-04-24 20:21 | 53.57831 | -11.98582 | 39107 ft | 444 kts | 113° |
| 2026-04-24 20:21 | 53.55692 | -11.88867 | 39131 ft | 440 kts | 113° |
| 2026-04-24 20:22 | 53.53565 | -11.79260 | 39132 ft | 438 kts | 113° |
| 2026-04-24 20:22 | 53.51428 | -11.69663 | 39132 ft | 438 kts | 114° |
| 2026-04-24 20:23 | 53.49285 | -11.60077 | 39129 ft | 438 kts | 114° |
| 2026-04-24 20:23 | 53.47134 | -11.50498 | 39135 ft | 438 kts | 114° |
| 2026-04-24 20:24 | 53.44975 | -11.40925 | 39112 ft | 438 kts | 114° |
| 2026-04-24 20:24 | 53.42808 | -11.31364 | 39135 ft | 438 kts | 114° |
| 2026-04-24 20:25 | 53.40636 | -11.21824 | 39135 ft | 438 kts | 114° |
| 2026-04-24 20:25 | 53.38453 | -11.12277 | 39138 ft | 438 kts | 114° |
| 2026-04-24 20:26 | 53.36265 | -11.02749 | 39135 ft | 438 kts | 115° |
| 2026-04-24 20:26 | 53.34070 | -10.93238 | 39138 ft | 438 kts | 115° |
| 2026-04-24 20:27 | 53.31863 | -10.83714 | 39138 ft | 438 kts | 115° |
| 2026-04-24 20:27 | 53.29667 | -10.74281 | 39138 ft | 438 kts | 115° |
| 2026-04-24 20:28 | 53.27448 | -10.64792 | 39143 ft | 438 kts | 115° |
| 2026-04-24 20:28 | 53.25218 | -10.55299 | 39143 ft | 440 kts | 115° |
| 2026-04-24 20:29 | 53.22972 | -10.45778 | 39143 ft | 441 kts | 115° |
| 2026-04-24 20:29 | 53.20715 | -10.36251 | 39143 ft | 441 kts | 115° |
| 2026-04-24 20:30 | 53.18451 | -10.26736 | 39135 ft | 441 kts | 115° |
| 2026-04-24 20:30 | 53.16187 | -10.17260 | 39137 ft | 439 kts | 116° |
| 2026-04-24 20:31 | 53.13938 | -10.07892 | 39136 ft | 438 kts | 116° |
| 2026-04-24 20:31 | 53.11668 | -9.98481 | 39149 ft | 438 kts | 116° |
| 2026-04-24 20:32 | 53.09388 | -9.89067 | 39156 ft | 438 kts | 116° |
| 2026-04-24 20:32 | 53.07106 | -9.79687 | 39147 ft | 438 kts | 116° |
| 2026-04-24 20:33 | 53.04816 | -9.70311 | 39145 ft | 438 kts | 116° |
| 2026-04-24 20:33 | 53.02519 | -9.60946 | 39150 ft | 436 kts | 116° |
| 2026-04-24 20:34 | 53.00214 | -9.51638 | 39154 ft | 435 kts | 117° |
| 2026-04-24 20:34 | 52.97838 | -9.42393 | 39156 ft | 435 kts | 117° |
| 2026-04-24 20:35 | 52.95443 | -9.33164 | 39155 ft | 435 kts | 117° |
| 2026-04-24 20:35 | 52.93052 | -9.23941 | 39157 ft | 435 kts | 117° |
| 2026-04-24 20:36 | 52.90675 | -9.14784 | 39157 ft | 435 kts | 117° |
| 2026-04-24 20:36 | 52.88275 | -9.05571 | 39151 ft | 437 kts | 117° |
| 2026-04-24 20:37 | 52.85856 | -8.96326 | 39157 ft | 438 kts | 118° |
| 2026-04-24 20:37 | 52.83433 | -8.87095 | 39159 ft | 438 kts | 118° |
| 2026-04-24 20:38 | 52.81000 | -8.77869 | 39157 ft | 438 kts | 118° |
| 2026-04-24 20:38 | 52.78557 | -8.68642 | 39155 ft | 438 kts | 118° |
| 2026-04-24 20:39 | 52.76109 | -8.59435 | 39164 ft | 438 kts | 118° |
| 2026-04-24 20:39 | 52.73656 | -8.50248 | 39161 ft | 438 kts | 118° |
| 2026-04-24 20:40 | 52.71188 | -8.41037 | 39166 ft | 438 kts | 118° |
| 2026-04-24 20:40 | 52.68708 | -8.31823 | 39163 ft | 440 kts | 118° |
| 2026-04-24 20:41 | 52.66217 | -8.22604 | 39174 ft | 441 kts | 118° |
| 2026-04-24 20:41 | 52.63716 | -8.13381 | 39174 ft | 441 kts | 118° |
| 2026-04-24 20:42 | 52.61223 | -8.04225 | 39173 ft | 441 kts | 118° |
| 2026-04-24 20:42 | 52.58705 | -7.95020 | 39181 ft | 441 kts | 118° |
| 2026-04-24 20:43 | 52.56186 | -7.85841 | 39182 ft | 440 kts | 118° |
| 2026-04-24 20:43 | 52.53660 | -7.76677 | 39190 ft | 440 kts | 118° |
| 2026-04-24 20:44 | 52.51126 | -7.67517 | 39190 ft | 440 kts | 119° |
| 2026-04-24 20:44 | 52.48599 | -7.58334 | 39192 ft | 442 kts | 118° |
| 2026-04-24 20:45 | 52.46111 | -7.49102 | 39193 ft | 442 kts | 118° |
| 2026-04-24 20:45 | 52.43621 | -7.39875 | 39192 ft | 443 kts | 118° |
| 2026-04-24 20:46 | 52.41108 | -7.30637 | 39203 ft | 444 kts | 118° |
| 2026-04-24 20:46 | 52.38581 | -7.21405 | 39205 ft | 444 kts | 118° |
| 2026-04-24 20:47 | 52.36047 | -7.12185 | 39208 ft | 444 kts | 118° |
| 2026-04-24 20:47 | 52.33527 | -7.03054 | 39209 ft | 444 kts | 118° |
| 2026-04-24 20:48 | 52.30979 | -6.93851 | 39204 ft | 444 kts | 119° |
| 2026-04-24 20:48 | 52.28419 | -6.84649 | 39210 ft | 446 kts | 118° |
| 2026-04-24 20:49 | 52.25836 | -6.75400 | 39205 ft | 447 kts | 118° |
| 2026-04-24 20:49 | 52.23251 | -6.66177 | 39207 ft | 447 kts | 118° |
| 2026-04-24 20:50 | 52.20659 | -6.56962 | 39208 ft | 447 kts | 118° |
| 2026-04-24 20:50 | 52.18057 | -6.47754 | 39204 ft | 447 kts | 118° |
| 2026-04-24 20:51 | 52.15467 | -6.38620 | 39192 ft | 447 kts | 118° |
| 2026-04-24 20:51 | 52.12841 | -6.29402 | 39206 ft | 450 kts | 118° |
| 2026-04-24 20:52 | 52.10200 | -6.20162 | 39200 ft | 451 kts | 118° |
| 2026-04-24 20:52 | 52.07549 | -6.10925 | 39200 ft | 451 kts | 118° |
| 2026-04-24 20:53 | 52.04893 | -6.01693 | 39203 ft | 451 kts | 118° |
| 2026-04-24 20:53 | 52.02278 | -5.92420 | 39200 ft | 451 kts | 118° |
| 2026-04-24 20:54 | 51.99679 | -5.83139 | 39200 ft | 452 kts | 117° |
| 2026-04-24 20:54 | 51.97058 | -5.73847 | 39203 ft | 453 kts | 118° |
| 2026-04-24 20:55 | 51.94422 | -5.64566 | 39207 ft | 453 kts | 118° |
| 2026-04-24 20:55 | 51.91774 | -5.55282 | 39205 ft | 453 kts | 118° |
| 2026-04-24 20:56 | 51.89117 | -5.46009 | 39206 ft | 454 kts | 118° |
| 2026-04-24 20:56 | 51.86469 | -5.36799 | 39205 ft | 454 kts | 118° |
| 2026-04-24 20:57 | 51.83796 | -5.27539 | 39205 ft | 454 kts | 118° |
| 2026-04-24 20:57 | 51.81116 | -5.18291 | 39208 ft | 454 kts | 118° |
| 2026-04-24 20:58 | 51.78427 | -5.09049 | 39209 ft | 454 kts | 118° |
| 2026-04-24 20:58 | 51.75802 | -4.99760 | 39208 ft | 455 kts | 116° |
| 2026-04-24 20:59 | 51.73377 | -4.90386 | 39208 ft | 455 kts | 116° |
| 2026-04-24 20:59 | 51.70942 | -4.80955 | 39209 ft | 456 kts | 116° |
| 2026-04-24 21:00 | 51.68461 | -4.71531 | 39214 ft | 457 kts | 116° |
| 2026-04-24 21:00 | 51.65955 | -4.62122 | 39214 ft | 457 kts | 116° |
| 2026-04-24 21:01 | 51.63441 | -4.52731 | 39212 ft | 457 kts | 116° |
| 2026-04-24 21:01 | 51.60917 | -4.43341 | 39212 ft | 457 kts | 117° |
| 2026-04-24 21:02 | 51.58391 | -4.33975 | 39211 ft | 457 kts | 117° |
| 2026-04-24 21:02 | 51.55848 | -4.24592 | 39212 ft | 459 kts | 116° |
| 2026-04-24 21:03 | 51.53939 | -4.14841 | 39218 ft | 463 kts | 105° |
| 2026-04-24 21:03 | 51.52701 | -4.04663 | 39217 ft | 465 kts | 103° |
| 2026-04-24 21:04 | 51.51570 | -3.94428 | 39219 ft | 465 kts | 103° |
| 2026-04-24 21:04 | 51.50436 | -3.84220 | 39211 ft | 465 kts | 103° |
| 2026-04-24 21:05 | 51.49274 | -3.74008 | 38734 ft | 465 kts | 103° |
| 2026-04-24 21:05 | 51.48682 | -3.68898 | 38115 ft | 465 kts | 103° |
| 2026-04-24 21:05 | 51.48101 | -3.63799 | 37545 ft | 466 kts | 101° |
| 2026-04-24 21:06 | 51.47832 | -3.60374 | 37176 ft | 466 kts | 98° |
| 2026-04-24 21:06 | 51.47380 | -3.53449 | 36410 ft | 467 kts | 98° |
| 2026-04-24 21:06 | 51.47174 | -3.50024 | 36002 ft | 468 kts | 97° |
| 2026-04-24 21:06 | 51.46872 | -3.44816 | 35333 ft | 470 kts | 97° |
| 2026-04-24 21:07 | 51.46572 | -3.39590 | 34663 ft | 472 kts | 97° |
| 2026-04-24 21:07 | 51.46268 | -3.34330 | 33900 ft | 475 kts | 97° |
| 2026-04-24 21:07 | 51.45958 | -3.29041 | 33158 ft | 476 kts | 97° |
| 2026-04-24 21:07 | 51.45643 | -3.23746 | 32424 ft | 478 kts | 97° |
| 2026-04-24 21:08 | 51.45324 | -3.18455 | 31790 ft | 476 kts | 97° |
| 2026-04-24 21:08 | 51.45004 | -3.13196 | 31276 ft | 473 kts | 97° |
| 2026-04-24 21:08 | 51.44682 | -3.07951 | 30737 ft | 470 kts | 97° |
| 2026-04-24 21:08 | 51.44361 | -3.02763 | 30186 ft | 467 kts | 97° |
| 2026-04-24 21:09 | 51.44039 | -2.97606 | 29607 ft | 463 kts | 97° |
| 2026-04-24 21:09 | 51.43717 | -2.92487 | 29074 ft | 459 kts | 97° |
| 2026-04-24 21:09 | 51.43397 | -2.87430 | 28640 ft | 452 kts | 97° |
| 2026-04-24 21:09 | 51.43081 | -2.82464 | 28383 ft | 443 kts | 96° |
| 2026-04-24 21:10 | 51.42772 | -2.77655 | 28142 ft | 434 kts | 97° |
| 2026-04-24 21:10 | 51.42465 | -2.72893 | 27920 ft | 425 kts | 97° |
| 2026-04-24 21:10 | 51.42162 | -2.68223 | 27709 ft | 416 kts | 97° |
| 2026-04-24 21:10 | 51.41864 | -2.63667 | 27501 ft | 408 kts | 97° |
| 2026-04-24 21:11 | 51.41569 | -2.59181 | 27284 ft | 401 kts | 97° |
| 2026-04-24 21:11 | 51.41277 | -2.54770 | 26985 ft | 396 kts | 97° |
| 2026-04-24 21:11 | 51.40986 | -2.50396 | 26636 ft | 393 kts | 97° |
| 2026-04-24 21:11 | 51.40695 | -2.46061 | 26280 ft | 390 kts | 97° |
| 2026-04-24 21:12 | 51.40409 | -2.41742 | 25924 ft | 388 kts | 97° |
| 2026-04-24 21:12 | 51.40122 | -2.37502 | 25548 ft | 387 kts | 97° |
| 2026-04-24 21:12 | 51.39828 | -2.33195 | 25095 ft | 388 kts | 97° |
| 2026-04-24 21:12 | 51.39532 | -2.28907 | 24733 ft | 387 kts | 97° |
| 2026-04-24 21:13 | 51.39236 | -2.24628 | 24396 ft | 385 kts | 97° |
| 2026-04-24 21:13 | 51.38941 | -2.20374 | 24054 ft | 383 kts | 97° |
| 2026-04-24 21:13 | 51.38646 | -2.16144 | 23678 ft | 381 kts | 97° |
| 2026-04-24 21:13 | 51.38354 | -2.11962 | 23077 ft | 376 kts | 97° |
| 2026-04-24 21:14 | 51.38062 | -2.07819 | 22432 ft | 373 kts | 97° |
| 2026-04-24 21:14 | 51.37772 | -2.03716 | 21820 ft | 369 kts | 97° |
| 2026-04-24 21:14 | 51.37484 | -1.99655 | 21232 ft | 365 kts | 97° |
| 2026-04-24 21:14 | 51.37201 | -1.95641 | 20669 ft | 361 kts | 97° |
| 2026-04-24 21:15 | 51.36916 | -1.91679 | 20112 ft | 357 kts | 97° |
| 2026-04-24 21:15 | 51.36634 | -1.87792 | 19524 ft | 355 kts | 97° |
| 2026-04-24 21:15 | 51.36349 | -1.83875 | 18988 ft | 354 kts | 97° |
| 2026-04-24 21:15 | 51.36065 | -1.79981 | 18645 ft | 351 kts | 97° |
| 2026-04-24 21:16 | 51.35785 | -1.76142 | 18129 ft | 345 kts | 97° |
| 2026-04-24 21:16 | 51.35505 | -1.72338 | 17583 ft | 341 kts | 97° |
| 2026-04-24 21:16 | 51.35229 | -1.68594 | 17067 ft | 337 kts | 97° |
| 2026-04-24 21:16 | 51.34954 | -1.64881 | 16557 ft | 333 kts | 97° |
| 2026-04-24 21:17 | 51.34682 | -1.61228 | 16064 ft | 328 kts | 97° |
| 2026-04-24 21:17 | 51.34413 | -1.57618 | 15583 ft | 324 kts | 97° |
| 2026-04-24 21:17 | 51.34148 | -1.54070 | 15115 ft | 320 kts | 97° |
| 2026-04-24 21:17 | 51.33883 | -1.50546 | 14746 ft | 318 kts | 97° |
| 2026-04-24 21:18 | 51.33617 | -1.47047 | 14512 ft | 315 kts | 97° |
| 2026-04-24 21:18 | 51.33357 | -1.43621 | 14271 ft | 313 kts | 97° |
| 2026-04-24 21:18 | 51.33093 | -1.40175 | 14001 ft | 311 kts | 98° |
| 2026-04-24 21:18 | 51.32830 | -1.36747 | 13679 ft | 310 kts | 98° |
| 2026-04-24 21:19 | 51.32568 | -1.33332 | 13366 ft | 309 kts | 98° |
| 2026-04-24 21:19 | 51.32305 | -1.29925 | 13064 ft | 308 kts | 98° |
| 2026-04-24 21:19 | 51.32043 | -1.26533 | 12739 ft | 307 kts | 98° |
| 2026-04-24 21:19 | 51.31780 | -1.23149 | 12491 ft | 304 kts | 98° |
| 2026-04-24 21:20 | 51.31324 | -1.16649 | 12175 ft | 283 kts | 93° |
| 2026-04-24 21:20 | 51.31268 | -1.13560 | 11908 ft | 275 kts | 91° |
| 2026-04-24 21:20 | 51.31243 | -1.10529 | 11586 ft | 269 kts | 91° |
| 2026-04-24 21:21 | 51.31221 | -1.07575 | 11323 ft | 262 kts | 91° |
| 2026-04-24 21:21 | 51.31197 | -1.04660 | 11114 ft | 263 kts | 91° |
| 2026-04-24 21:21 | 51.31171 | -1.01738 | 10904 ft | 262 kts | 91° |
| 2026-04-24 21:21 | 51.31145 | -0.98829 | 10701 ft | 261 kts | 91° |
| 2026-04-24 21:22 | 51.31117 | -0.95944 | 10498 ft | 259 kts | 90° |
| 2026-04-24 21:22 | 51.31089 | -0.93104 | 10317 ft | 259 kts | 90° |
| 2026-04-24 21:22 | 51.31060 | -0.90237 | 10132 ft | 258 kts | 90° |
| 2026-04-24 21:22 | 51.31031 | -0.87379 | 9920 ft | 256 kts | 90° |
| 2026-04-24 21:23 | 51.31001 | -0.84536 | 9714 ft | 255 kts | 90° |
| 2026-04-24 21:23 | 51.30970 | -0.81692 | 9589 ft | 255 kts | 90° |
| 2026-04-24 21:23 | 51.30939 | -0.78871 | 9414 ft | 253 kts | 90° |
| 2026-04-24 21:23 | 51.30908 | -0.76059 | 9236 ft | 252 kts | 91° |
| 2026-04-24 21:24 | 51.30880 | -0.73295 | 9077 ft | 252 kts | 91° |
| 2026-04-24 21:24 | 51.30846 | -0.70503 | 8895 ft | 251 kts | 91° |
| 2026-04-24 21:24 | 51.30811 | -0.67715 | 8734 ft | 250 kts | 91° |
| 2026-04-24 21:24 | 51.30776 | -0.64948 | 8525 ft | 249 kts | 91° |
| 2026-04-24 21:25 | 51.30744 | -0.62183 | 8309 ft | 248 kts | 91° |
| 2026-04-24 21:25 | 51.30713 | -0.59433 | 8265 ft | 248 kts | 91° |
| 2026-04-24 21:25 | 51.30682 | -0.56674 | 8268 ft | 248 kts | 91° |
| 2026-04-24 21:25 | 51.30651 | -0.53916 | 8260 ft | 248 kts | 91° |
| 2026-04-24 21:26 | 51.30620 | -0.51159 | 8260 ft | 248 kts | 91° |
| 2026-04-24 21:26 | 51.30613 | -0.48391 | 8260 ft | 248 kts | 86° |
| 2026-04-24 21:26 | 51.31106 | -0.45786 | 8262 ft | 247 kts | 57° |
| 2026-04-24 21:26 | 51.32343 | -0.43917 | 8260 ft | 246 kts | 27° |
| 2026-04-24 21:27 | 51.33986 | -0.43263 | 8114 ft | 246 kts | 359° |
| 2026-04-24 21:27 | 51.35621 | -0.43990 | 7819 ft | 247 kts | 328° |
| 2026-04-24 21:27 | 51.36840 | -0.45847 | 7552 ft | 247 kts | 306° |
| 2026-04-24 21:27 | 51.37468 | -0.48377 | 7318 ft | 245 kts | 278° |
| 2026-04-24 21:28 | 51.37596 | -0.51094 | 7266 ft | 246 kts | 271° |
| 2026-04-24 21:28 | 51.37689 | -0.53840 | 7265 ft | 247 kts | 271° |
| 2026-04-24 21:28 | 51.37728 | -0.56581 | 7265 ft | 247 kts | 271° |
| 2026-04-24 21:28 | 51.37754 | -0.59336 | 7264 ft | 247 kts | 271° |
| 2026-04-24 21:29 | 51.37778 | -0.62087 | 7264 ft | 247 kts | 271° |
| 2026-04-24 21:29 | 51.37802 | -0.64840 | 7263 ft | 247 kts | 271° |
| 2026-04-24 21:29 | 51.37825 | -0.67578 | 7263 ft | 247 kts | 271° |
| 2026-04-24 21:29 | 51.37848 | -0.70333 | 7263 ft | 247 kts | 271° |
| 2026-04-24 21:30 | 51.37871 | -0.73074 | 7263 ft | 247 kts | 271° |
| 2026-04-24 21:30 | 51.37893 | -0.75823 | 7263 ft | 247 kts | 271° |
| 2026-04-24 21:30 | 51.37915 | -0.78573 | 7259 ft | 247 kts | 271° |
| 2026-04-24 21:30 | 51.37937 | -0.81323 | 7260 ft | 247 kts | 271° |
| 2026-04-24 21:31 | 51.37958 | -0.84069 | 7258 ft | 247 kts | 270° |
| 2026-04-24 21:31 | 51.37980 | -0.86818 | 7155 ft | 246 kts | 270° |
| 2026-04-24 21:31 | 51.38001 | -0.89524 | 6913 ft | 245 kts | 270° |
| 2026-04-24 21:31 | 51.38024 | -0.92255 | 6651 ft | 246 kts | 270° |
| 2026-04-24 21:32 | 51.38051 | -0.94984 | 6401 ft | 244 kts | 271° |
| 2026-04-24 21:32 | 51.38451 | -0.97610 | 6078 ft | 246 kts | 299° |
| 2026-04-24 21:32 | 51.39613 | -0.99579 | 5792 ft | 245 kts | 329° |
| 2026-04-24 21:32 | 51.41222 | -1.00391 | 5528 ft | 243 kts | 354° |
| 2026-04-24 21:33 | 51.42904 | -1.00357 | 5247 ft | 241 kts | 15° |
| 2026-04-24 21:33 | 51.43909 | -0.99667 | 5124 ft | 236 kts | 36° |
| 2026-04-24 21:33 | 51.45377 | -0.97186 | 4981 ft | 224 kts | 54° |
| 2026-04-24 21:33 | 51.46275 | -0.95229 | 4891 ft | 217 kts | 55° |
| 2026-04-24 21:34 | 51.47091 | -0.93279 | 4817 ft | 203 kts | 65° |
| 2026-04-24 21:34 | 51.47497 | -0.91192 | 4637 ft | 192 kts | 82° |
| 2026-04-24 21:34 | 51.47601 | -0.89076 | 4338 ft | 189 kts | 90° |
| 2026-04-24 21:34 | 51.47612 | -0.86983 | 4058 ft | 185 kts | 90° |
| 2026-04-24 21:35 | 51.47616 | -0.84936 | 3983 ft | 179 kts | 90° |
| 2026-04-24 21:35 | 51.47621 | -0.83032 | 3969 ft | 165 kts | 90° |
| 2026-04-24 21:35 | 51.47626 | -0.81202 | 3982 ft | 164 kts | 90° |
| 2026-04-24 21:35 | 51.47634 | -0.79369 | 3910 ft | 164 kts | 90° |
| 2026-04-24 21:36 | 51.47644 | -0.77548 | 3714 ft | 163 kts | 90° |
| 2026-04-24 21:36 | 51.47651 | -0.75738 | 3493 ft | 162 kts | 90° |
| 2026-04-24 21:36 | 51.47657 | -0.73943 | 3254 ft | 160 kts | 90° |
| 2026-04-24 21:36 | 51.47663 | -0.72158 | 3021 ft | 159 kts | 90° |
| 2026-04-24 21:37 | 51.47670 | -0.70391 | 2816 ft | 158 kts | 90° |
| 2026-04-24 21:37 | 51.47676 | -0.68649 | 2599 ft | 157 kts | 90° |
| 2026-04-24 21:37 | 51.47682 | -0.66901 | 2389 ft | 156 kts | 90° |
| 2026-04-24 21:37 | 51.47688 | -0.65166 | 2179 ft | 155 kts | 90° |
| 2026-04-24 21:38 | 51.47694 | -0.63450 | 1954 ft | 152 kts | 90° |
| 2026-04-24 21:38 | 51.47700 | -0.61809 | 1758 ft | 143 kts | 90° |
| 2026-04-24 21:38 | 51.47705 | -0.60300 | 1570 ft | 128 kts | 90° |
| 2026-04-24 21:38 | 51.47710 | -0.58912 | 1405 ft | 123 kts | 89° |
| 2026-04-24 21:39 | 51.47716 | -0.57539 | 1245 ft | 123 kts | 89° |
| 2026-04-24 21:39 | 51.47727 | -0.56160 | 1056 ft | 124 kts | 88° |
| 2026-04-24 21:39 | 51.47732 | -0.54785 | 875 ft | 123 kts | 88° |
| 2026-04-24 21:39 | 51.47739 | -0.53413 | 709 ft | 124 kts | 89° |
| 2026-04-24 21:40 | 51.47744 | -0.52033 | 540 ft | 123 kts | 89° |
| 2026-04-24 21:40 | 51.47745 | -0.50660 | 371 ft | 123 kts | 89° |
| 2026-04-24 21:40 | 51.47746 | -0.49281 | 238 ft | 126 kts | 88° |
| 2026-04-24 21:40 | 51.47755 | -0.47902 | 102 ft | 122 kts | 89° |
| 2026-04-24 21:41 | 51.47758 | -0.46753 | 96 ft | 78 kts | 90° |
| 2026-04-24 21:41 | 51.47759 | -0.46103 | 93 ft | 49 kts | 90° |
| 2026-04-24 21:41 | 51.47761 | -0.45640 | 91 ft | 23 kts | 89° |
| 2026-04-24 21:41 | 51.47719 | -0.45487 | 91 ft | 13 kts | 147° |
| 2026-04-24 21:42 | 51.47631 | -0.45468 | 90 ft | 12 kts | 196° |
| 2026-04-24 21:42 | 51.47597 | -0.45568 | 94 ft | 11 kts | 264° |
| 2026-04-24 21:42 | 51.47595 | -0.45705 | 93 ft | 13 kts | 270° |
| 2026-04-24 21:42 | 51.47595 | -0.45861 | 93 ft | 15 kts | 270° |
| 2026-04-24 21:43 | 51.47595 | -0.46033 | 94 ft | 15 kts | 270° |
| 2026-04-24 21:43 | 51.47595 | -0.46206 | 94 ft | 16 kts | 270° |
| 2026-04-24 21:43 | 51.47594 | -0.46396 | 94 ft | 18 kts | 269° |
| 2026-04-24 21:43 | 51.47592 | -0.46601 | 90 ft | 19 kts | 270° |
| 2026-04-24 21:44 | 51.47591 | -0.46812 | 90 ft | 14 kts | 267° |
| 2026-04-24 21:44 | 51.47548 | -0.46917 | 93 ft | 11 kts | 195° |
| 2026-04-24 21:44 | 51.47450 | -0.46895 | 94 ft | 17 kts | 167° |
| 2026-04-24 21:44 | 51.47333 | -0.46866 | 90 ft | 17 kts | 179° |
| 2026-04-24 21:45 | 51.47248 | -0.46827 | 93 ft | 11 kts | 122° |
| 2026-04-24 21:45 | 51.47238 | -0.46671 | 90 ft | 16 kts | 91° |
| 2026-04-24 21:45 | 51.47239 | -0.46490 | 90 ft | 16 kts | 90° |
| 2026-04-24 21:45 | 51.47193 | -0.46374 | 95 ft | 13 kts | 141° |
| 2026-04-24 21:46 | 51.47113 | -0.46285 | 94 ft | 9 kts | 147° |
| 2026-04-24 21:46 | 51.47065 | -0.46304 | 95 ft | 8 kts | 221° |
| 2026-04-24 21:46 | 51.47042 | -0.46351 | 95 ft | 2 kts | 234° |
| 2026-04-24 21:46 | 51.47037 | -0.46361 | 95 ft | 0 kts | 234° |